Time;durP1;ratioP1;P1;durP2;ratioP2;P2;SDS_P1;SDS_P2;PMS_P1;PMS_P2;Temp;Humidity;BMP_temperature;BMP_pressure;BME280_temperature;BME280_humidity;BME280_pressure;Samples;Min_cycle;Max_cycle;Signal;HPM_P1;HPM_P2
2022/12/22 03:28:07;;;;;;;7.17;3.20;;;6.60;99.90;;;;;;5094178;28;20283;-84
2022/12/22 03:30:33;;;;;;;4.50;2.87;;;6.60;99.90;;;;;;5075606;28;20184;-84
2022/12/22 03:32:59;;;;;;;4.30;3.30;;;6.70;99.90;;;;;;5075548;28;20176;-85
2022/12/22 03:35:25;;;;;;;3.67;3.17;;;6.70;99.90;;;;;;5093452;28;20223;-84
2022/12/22 03:37:51;;;;;;;4.13;3.00;;;6.70;99.90;;;;;;5075558;28;20609;-84
2022/12/22 03:40:16;;;;;;;5.17;3.40;;;6.60;99.90;;;;;;5092202;28;20212;-84
2022/12/22 03:48:10;;;;;;;4.87;3.47;;;6.60;99.90;;;;;;5097528;28;20166;-85
2022/12/22 03:50:36;;;;;;;5.03;3.80;;;6.60;99.90;;;;;;5096057;28;20180;-85
2022/12/22 03:53:04;;;;;;;3.90;3.27;;;6.60;99.90;;;;;;5097155;28;20533;-84
2022/12/22 03:55:30;;;;;;;5.27;3.63;;;6.70;99.90;;;;;;5078726;28;20188;-84
2022/12/22 03:57:56;;;;;;;3.73;3.37;;;6.70;99.90;;;;;;5078850;28;20263;-84
2022/12/22 04:00:21;;;;;;;5.67;3.57;;;6.70;99.90;;;;;;5078881;28;20240;-84
2022/12/22 04:02:47;;;;;;;8.10;3.70;;;6.80;99.90;;;;;;5078799;28;20183;-84
2022/12/22 04:05:13;;;;;;;4.20;3.53;;;6.70;99.90;;;;;;5095587;28;20216;-85
2022/12/22 04:07:39;;;;;;;4.83;3.90;;;6.70;99.90;;;;;;5095641;28;20204;-84
2022/12/22 04:12:55;;;;;;;5.43;3.83;;;6.70;99.90;;;;;;5097006;28;20218;-83
2022/12/22 04:15:30;;;;;;;6.97;4.00;;;6.70;99.90;;;;;;5077621;28;20172;-84
2022/12/22 04:17:57;;;;;;;6.00;4.57;;;6.70;99.90;;;;;;5078559;28;20607;-84
2022/12/22 04:20:28;;;;;;;5.87;4.00;;;6.70;99.90;;;;;;5078901;28;20216;-85
2022/12/22 04:22:54;;;;;;;4.32;3.92;;;6.70;99.90;;;;;;5078607;28;20287;-85
2022/12/22 04:25:23;;;;;;;5.23;3.80;;;6.70;99.90;;;;;;5095743;28;20263;-84
2022/12/22 04:27:49;;;;;;;4.80;4.30;;;6.70;99.90;;;;;;5078362;28;20607;-84
2022/12/22 04:30:15;;;;;;;6.57;4.30;;;6.70;99.90;;;;;;5096524;28;20251;-84
2022/12/22 04:32:41;;;;;;;4.70;3.93;;;6.70;99.90;;;;;;5077950;28;20177;-84
2022/12/22 04:35:07;;;;;;;4.80;3.80;;;6.70;99.90;;;;;;5076046;28;20238;-85
2022/12/22 04:37:33;;;;;;;4.37;3.80;;;6.70;99.90;;;;;;5057342;28;20193;-84
2022/12/22 04:39:59;;;;;;;6.50;4.30;;;6.70;99.90;;;;;;5075903;28;20274;-84
2022/12/22 04:42:25;;;;;;;4.63;3.90;;;6.70;99.90;;;;;;5058063;28;20181;-84
2022/12/22 04:44:51;;;;;;;5.07;4.13;;;6.80;99.90;;;;;;5057818;28;20547;-85
2022/12/22 04:47:17;;;;;;;6.57;4.50;;;6.70;99.90;;;;;;5075565;28;20185;-84
2022/12/22 04:49:42;;;;;;;6.10;4.07;;;6.80;99.90;;;;;;5075708;28;20181;-84
2022/12/22 04:52:08;;;;;;;8.37;4.17;;;6.80;99.90;;;;;;5057751;28;20273;-85
2022/12/22 04:54:34;;;;;;;5.27;4.13;;;6.80;99.90;;;;;;5057604;28;20280;-85
2022/12/22 04:57:00;;;;;;;4.27;3.80;;;6.70;99.90;;;;;;5075714;28;20173;-85
2022/12/22 04:59:26;;;;;;;5.20;3.90;;;6.70;99.90;;;;;;5074578;28;20184;-85
2022/12/22 05:01:51;;;;;;;5.33;4.07;;;6.70;99.90;;;;;;5057378;28;20185;-85
2022/12/22 05:04:17;;;;;;;4.03;3.63;;;6.70;99.90;;;;;;5075500;28;20184;-85
2022/12/22 05:06:43;;;;;;;4.50;3.93;;;6.70;99.90;;;;;;5075369;28;20185;-85
2022/12/22 05:09:09;;;;;;;5.90;4.50;;;6.70;99.90;;;;;;5057619;28;20607;-85
2022/12/22 05:11:35;;;;;;;4.83;4.27;;;6.70;99.90;;;;;;5057588;28;20213;-84
2022/12/22 05:14:01;;;;;;;5.33;4.30;;;6.70;99.90;;;;;;5057384;28;20266;-84
2022/12/22 05:16:27;;;;;;;4.73;4.00;;;6.70;99.90;;;;;;5075117;28;20173;-84
2022/12/22 05:18:52;;;;;;;4.30;3.73;;;6.60;99.90;;;;;;5057496;28;20582;-85
2022/12/22 05:21:21;;;;;;;5.00;4.27;;;6.60;99.90;;;;;;5057000;28;20280;-84
2022/12/22 05:23:47;;;;;;;8.30;4.27;;;6.60;99.90;;;;;;5057098;28;20184;-84
2022/12/22 05:26:16;;;;;;;8.57;4.60;;;6.50;99.90;;;;;;5075186;28;20189;-84
2022/12/22 05:28:43;;;;;;;5.03;4.30;;;6.50;99.90;;;;;;5057273;28;20177;-85
2022/12/22 05:31:21;;;;;;;6.67;4.70;;;6.60;99.90;;;;;;5056938;28;20208;-85
2022/12/22 05:33:48;;;;;;;6.27;4.67;;;6.60;99.90;;;;;;5056833;28;20177;-84
2022/12/22 05:36:14;;;;;;;4.37;3.63;;;6.60;99.90;;;;;;5064625;28;20229;-84
2022/12/22 05:38:40;;;;;;;5.70;4.57;;;6.60;99.90;;;;;;5073674;28;20181;-85
2022/12/22 05:41:06;;;;;;;4.87;4.30;;;6.60;99.90;;;;;;5076571;28;20658;-85
2022/12/22 05:43:33;;;;;;;5.60;4.43;;;6.60;99.90;;;;;;5093816;28;20177;-85
2022/12/22 05:46:04;;;;;;;5.27;4.13;;;6.60;99.90;;;;;;5093611;28;20191;-85
2022/12/22 05:48:31;;;;;;;4.43;3.80;;;6.60;99.90;;;;;;5093860;28;20172;-85
2022/12/22 05:50:56;;;;;;;5.67;3.97;;;6.60;99.90;;;;;;5094992;28;20209;-85
2022/12/22 05:53:22;;;;;;;6.10;4.10;;;6.60;99.90;;;;;;5093627;28;20271;-85
2022/12/22 05:55:49;;;;;;;5.97;4.47;;;6.60;99.90;;;;;;5093767;28;20176;-85
2022/12/22 05:58:15;;;;;;;5.73;4.60;;;6.50;99.90;;;;;;5093825;28;20172;-85
2022/12/22 06:00:40;;;;;;;6.37;4.43;;;6.50;99.90;;;;;;5093347;28;20211;-85
2022/12/22 06:03:06;;;;;;;4.93;4.23;;;6.60;99.90;;;;;;5093139;28;20172;-85
2022/12/22 06:05:32;;;;;;;5.60;4.30;;;6.60;99.90;;;;;;5093491;28;20212;-84
2022/12/22 06:07:57;;;;;;;5.57;3.90;;;6.60;99.90;;;;;;5093512;28;20180;-85
2022/12/22 06:10:23;;;;;;;4.30;3.90;;;6.60;99.90;;;;;;5093207;28;20180;-85
2022/12/22 06:12:49;;;;;;;4.97;3.30;;;6.60;99.90;;;;;;5093414;28;20186;-84
2022/12/22 06:15:16;;;;;;;4.80;4.30;;;6.50;99.90;;;;;;5093181;28;20176;-84
2022/12/22 06:17:42;;;;;;;5.07;4.27;;;6.50;99.90;;;;;;5093054;28;20173;-85
2022/12/22 06:20:08;;;;;;;4.93;4.10;;;6.40;99.90;;;;;;5094572;28;20199;-85
2022/12/22 06:22:34;;;;;;;4.90;4.00;;;6.50;99.90;;;;;;5093434;28;20180;-85
2022/12/22 06:25:00;;;;;;;5.83;4.57;;;6.50;99.90;;;;;;5093065;28;20169;-85
2022/12/22 06:27:26;;;;;;;5.57;4.73;;;6.50;99.90;;;;;;5093159;28;20607;-85
2022/12/22 06:29:51;;;;;;;5.10;4.30;;;6.60;99.90;;;;;;5093053;28;20522;-84
2022/12/22 06:32:17;;;;;;;5.13;4.43;;;6.60;99.90;;;;;;5092812;28;20180;-85
2022/12/22 06:34:43;;;;;;;6.77;5.27;;;6.60;99.90;;;;;;5093336;28;20596;-85
2022/12/22 06:37:09;;;;;;;7.23;4.93;;;6.70;99.90;;;;;;5092824;28;20266;-86
2022/12/22 06:39:34;;;;;;;5.83;4.30;;;6.70;99.90;;;;;;5093217;28;20614;-85
2022/12/22 06:44:44;;;;;;;7.67;4.60;;;6.80;99.90;;;;;;5094587;28;20605;-85
2022/12/22 06:47:11;;;;;;;5.83;4.87;;;6.80;99.90;;;;;;5092916;28;20189;-85
2022/12/22 06:49:37;;;;;;;9.30;5.20;;;6.80;99.90;;;;;;5094338;28;20174;-85
2022/12/22 06:52:07;;;;;;;8.70;4.67;;;6.80;99.90;;;;;;5090582;28;20533;-85
2022/12/22 06:54:33;;;;;;;5.23;4.40;;;6.80;99.90;;;;;;5081975;28;20499;-85
2022/12/22 06:56:59;;;;;;;5.37;4.60;;;6.80;99.90;;;;;;5082227;28;20256;-85
2022/12/22 06:59:24;;;;;;;6.60;4.73;;;6.80;99.90;;;;;;5094145;28;20255;-85
2022/12/22 07:01:50;;;;;;;5.07;4.57;;;6.80;99.90;;;;;;5092614;28;20279;-85
2022/12/22 07:04:19;;;;;;;6.60;5.03;;;6.80;99.90;;;;;;5094090;28;20172;-84
2022/12/22 07:06:46;;;;;;;6.17;4.90;;;6.80;99.90;;;;;;5092808;28;20216;-85
2022/12/22 07:09:12;;;;;;;6.53;4.87;;;6.80;99.90;;;;;;5092802;28;20259;-85
2022/12/22 07:11:38;;;;;;;8.13;5.60;;;6.80;99.90;;;;;;5092555;28;20267;-85
2022/12/22 07:14:03;;;;;;;5.60;4.47;;;6.70;99.90;;;;;;5092679;28;20184;-85
2022/12/22 07:16:30;;;;;;;5.17;4.00;;;6.70;99.90;;;;;;5091523;28;20184;-84
2022/12/22 07:18:56;;;;;;;6.33;4.10;;;6.70;99.90;;;;;;5094133;28;20247;-85
2022/12/22 07:21:21;;;;;;;5.40;4.67;;;6.60;99.90;;;;;;5093667;28;20304;-85
2022/12/22 07:23:47;;;;;;;5.97;4.30;;;6.60;99.90;;;;;;5096372;28;20611;-84
2022/12/22 07:26:14;;;;;;;6.40;5.20;;;6.60;99.90;;;;;;5097849;28;20181;-85
2022/12/22 07:28:41;;;;;;;6.30;4.47;;;6.70;99.90;;;;;;5096583;28;20183;-85
2022/12/22 07:31:09;;;;;;;7.97;4.50;;;6.60;99.90;;;;;;5095642;28;20207;-85
2022/12/22 07:33:35;;;;;;;8.70;5.50;;;6.70;99.90;;;;;;5096270;28;20240;-85
2022/12/22 07:36:06;;;;;;;6.70;4.60;;;6.70;99.90;;;;;;5096050;28;20220;-85
2022/12/22 07:38:40;;;;;;;6.63;4.60;;;6.70;99.90;;;;;;5097513;28;20501;-84
2022/12/22 07:42:43;;;;;;;5.67;4.80;;;6.80;99.90;;;;;;5097584;28;20214;-85
2022/12/22 07:43:55;;;;;;;6.13;4.57;;;6.70;99.90;;;;;;5097382;28;20165;-85
2022/12/22 07:46:24;;;;;;;9.43;5.00;;;6.70;99.90;;;;;;5097205;28;20634;-85
2022/12/22 07:51:36;;;;;;;6.13;4.37;;;6.70;99.90;;;;;;5097708;28;20221;-84
2022/12/22 07:54:04;;;;;;;5.37;4.40;;;6.70;99.90;;;;;;5095991;28;20180;-85
2022/12/22 07:56:30;;;;;;;6.73;5.07;;;6.70;99.90;;;;;;5095970;28;20181;-84
2022/12/22 07:58:56;;;;;;;5.93;4.80;;;6.70;99.90;;;;;;5097303;28;20172;-85
2022/12/22 08:01:22;;;;;;;5.60;4.20;;;6.70;99.90;;;;;;5095367;28;20208;-85
2022/12/22 08:03:48;;;;;;;5.70;4.57;;;6.70;99.90;;;;;;5095613;28;20265;-84
2022/12/22 08:06:15;;;;;;;6.77;4.37;;;6.70;99.90;;;;;;5095928;28;20584;-85
2022/12/22 08:08:41;;;;;;;6.53;4.60;;;6.70;99.90;;;;;;5096043;28;20221;-85
2022/12/22 08:11:06;;;;;;;5.47;4.37;;;6.70;99.90;;;;;;5097180;28;20168;-85
2022/12/22 08:13:33;;;;;;;9.90;4.33;;;6.70;99.90;;;;;;5096808;28;20176;-85
2022/12/22 08:16:03;;;;;;;6.93;4.80;;;6.70;99.90;;;;;;5095063;28;20195;-85
2022/12/22 08:18:29;;;;;;;5.73;4.90;;;6.70;99.90;;;;;;5096927;28;20253;-85
2022/12/22 08:20:55;;;;;;;5.27;4.40;;;6.70;99.90;;;;;;5095521;28;20232;-85
2022/12/22 08:23:21;;;;;;;5.90;4.70;;;6.70;99.90;;;;;;5096656;28;20199;-85
2022/12/22 08:25:54;;;;;;;4.83;4.07;;;6.70;99.90;;;;;;5095513;28;20181;-85
2022/12/22 08:28:20;;;;;;;4.87;4.37;;;6.70;99.90;;;;;;5095452;28;20242;-85
2022/12/22 08:30:46;;;;;;;5.20;4.10;;;6.70;99.90;;;;;;5095389;28;20184;-85
2022/12/22 08:33:12;;;;;;;5.00;4.13;;;6.70;99.90;;;;;;5094847;28;20180;-85
2022/12/22 08:35:37;;;;;;;7.37;4.77;;;6.70;99.90;;;;;;5095220;28;20723;-85
2022/12/22 08:38:04;;;;;;;5.07;4.00;;;6.80;99.90;;;;;;5095703;28;20639;-83
2022/12/22 08:40:31;;;;;;;5.77;4.13;;;6.80;99.90;;;;;;5095249;28;20295;-83
2022/12/22 08:43:02;;;;;;;5.07;4.50;;;6.80;99.90;;;;;;5096437;28;20176;-85
2022/12/22 08:45:27;;;;;;;6.27;4.43;;;6.80;99.90;;;;;;5095041;28;20169;-85
2022/12/22 08:47:53;;;;;;;6.20;4.23;;;6.80;99.90;;;;;;5094964;28;20580;-85
2022/12/22 08:50:19;;;;;;;5.97;4.43;;;6.80;99.90;;;;;;5096348;28;20169;-85
2022/12/22 08:52:45;;;;;;;5.37;4.47;;;6.90;99.90;;;;;;5094978;28;20245;-85
2022/12/22 08:55:10;;;;;;;5.23;4.33;;;6.90;99.90;;;;;;5094984;28;20184;-85
2022/12/22 08:57:36;;;;;;;7.13;4.80;;;6.90;99.90;;;;;;5094912;28;20173;-84
2022/12/22 09:00:05;;;;;;;5.43;4.07;;;6.90;99.90;;;;;;5094925;28;20654;-86
2022/12/22 09:02:32;;;;;;;5.70;4.27;;;6.90;99.90;;;;;;5093935;28;20271;-85
2022/12/22 09:04:58;;;;;;;5.30;4.03;;;6.90;99.90;;;;;;5094709;28;20177;-85
2022/12/22 09:07:23;;;;;;;6.00;4.43;;;7.00;99.90;;;;;;5096347;28;20177;-85
2022/12/22 09:09:49;;;;;;;6.33;3.90;;;7.00;99.90;;;;;;5094686;28;20226;-86
2022/12/22 09:12:15;;;;;;;5.17;4.00;;;7.00;99.90;;;;;;5094458;28;20225;-85
2022/12/22 09:14:41;;;;;;;3.93;3.33;;;7.00;99.90;;;;;;5094559;28;20191;-87
2022/12/22 09:17:07;;;;;;;5.27;3.43;;;7.00;99.90;;;;;;5095613;28;20174;-85
2022/12/22 09:19:33;;;;;;;4.37;3.70;;;6.90;99.90;;;;;;5094676;28;20516;-85
2022/12/22 09:21:58;;;;;;;4.53;3.50;;;6.90;99.90;;;;;;5093675;28;20184;-85
2022/12/22 09:24:24;;;;;;;6.00;4.13;;;6.90;99.90;;;;;;5095543;28;20198;-85
2022/12/22 09:26:50;;;;;;;8.73;4.22;;;7.00;99.90;;;;;;5094365;28;20176;-85
2022/12/22 09:29:16;;;;;;;4.83;3.97;;;6.90;99.90;;;;;;5094261;28;20221;-86
2022/12/22 09:31:42;;;;;;;4.97;3.90;;;6.90;99.90;;;;;;5094007;28;20225;-85
2022/12/22 09:34:08;;;;;;;7.23;4.50;;;6.90;99.90;;;;;;5095490;28;20176;-85
2022/12/22 09:36:34;;;;;;;5.13;3.70;;;6.90;99.90;;;;;;5095145;28;20236;-86
2022/12/22 09:39:08;;;;;;;5.73;4.03;;;6.90;99.90;;;;;;5094272;28;20172;-85
2022/12/22 09:41:46;;;;;;;4.73;4.03;;;6.90;99.90;;;;;;5076888;28;20219;-85
2022/12/22 09:44:23;;;;;;;5.00;4.10;;;7.00;99.90;;;;;;5094370;28;20172;-85
2022/12/22 09:46:49;;;;;;;5.07;4.13;;;7.00;99.90;;;;;;5076901;28;20198;-84
2022/12/22 09:49:17;;;;;;;4.03;3.63;;;7.00;99.90;;;;;;5077022;28;20176;-85
2022/12/22 09:51:48;;;;;;;5.60;4.10;;;7.00;99.90;;;;;;5094608;28;20550;-85
2022/12/22 09:54:14;;;;;;;5.00;3.93;;;7.00;99.90;;;;;;5076719;28;20172;-85
2022/12/22 09:56:41;;;;;;;5.73;4.17;;;7.00;99.90;;;;;;5093762;28;20285;-85
2022/12/22 09:59:13;;;;;;;6.72;4.50;;;7.00;99.90;;;;;;5076815;28;20222;-85
2022/12/22 10:02:02;;;;;;;6.75;4.03;;;7.00;99.90;;;;;;5076440;28;20537;-85
2022/12/22 10:04:34;;;;;;;8.87;5.07;;;7.10;99.90;;;;;;5076384;28;20176;-84
2022/12/22 10:07:14;;;;;;;8.13;4.93;;;7.10;99.90;;;;;;5094746;28;20180;-84
2022/12/22 10:09:40;;;;;;;6.23;4.70;;;7.10;99.90;;;;;;5076583;28;20169;-85
2022/12/22 10:12:12;;;;;;;5.67;4.30;;;7.10;99.90;;;;;;5093506;28;20180;-85
2022/12/22 10:14:42;;;;;;;4.47;4.07;;;7.10;99.90;;;;;;5076274;28;20226;-85
2022/12/22 10:17:24;;;;;;;6.28;4.57;;;7.20;99.90;;;;;;5075551;28;20615;-85
2022/12/22 10:19:53;;;;;;;5.70;4.37;;;7.20;99.90;;;;;;5076509;28;20199;-83
2022/12/22 10:22:44;;;;;;;5.70;4.40;;;7.20;99.90;;;;;;5076400;28;20623;-82
2022/12/22 10:25:26;;;;;;;5.60;3.97;;;7.20;99.90;;;;;;5094412;28;20161;-82
2022/12/22 10:27:56;;;;;;;5.50;4.03;;;7.20;99.90;;;;;;5076441;28;20514;-85
2022/12/22 10:30:28;;;;;;;6.47;4.18;;;7.20;99.90;;;;;;5076302;28;20236;-85
2022/12/22 10:33:20;;;;;;;5.13;4.07;;;7.20;99.90;;;;;;5094131;28;20619;-84
2022/12/22 10:35:56;;;;;;;6.47;4.23;;;7.20;99.90;;;;;;5072009;28;20224;-85
2022/12/22 10:38:37;;;;;;;7.25;5.38;;;7.30;99.90;;;;;;5076520;28;20206;-85
2022/12/22 10:41:15;;;;;;;11.90;5.53;;;7.20;99.90;;;;;;5094371;28;20211;-85
2022/12/22 10:43:54;;;;;;;9.33;5.70;;;7.30;99.90;;;;;;5076173;28;20195;-85
2022/12/22 10:46:34;;;;;;;8.63;5.72;;;7.30;99.90;;;;;;5075776;28;20191;-85
2022/12/22 10:49:27;;;;;;;10.17;6.67;;;7.30;99.90;;;;;;5076177;28;20559;-84
2022/12/22 10:52:08;;;;;;;9.03;6.57;;;7.30;99.90;;;;;;5076136;28;20192;-85
2022/12/22 10:54:35;;;;;;;11.77;7.03;;;7.40;99.90;;;;;;5075840;28;20176;-83
2022/12/22 10:57:06;;;;;;;8.63;6.10;;;7.30;99.90;;;;;;5096365;28;20259;-84
2022/12/22 10:59:33;;;;;;;8.20;6.40;;;7.40;99.90;;;;;;5080160;28;20176;-85
2022/12/22 11:02:24;;;;;;;11.25;6.28;;;7.40;99.90;;;;;;5079702;28;20184;-85
2022/12/22 11:04:51;;;;;;;10.43;6.07;;;7.50;99.90;;;;;;5079736;28;20181;-84
2022/12/22 11:07:17;;;;;;;10.27;5.87;;;7.60;99.90;;;;;;5079865;28;20180;-85
2022/12/22 11:09:43;;;;;;;9.30;5.97;;;7.60;99.90;;;;;;5080088;28;20618;-85
2022/12/22 11:12:12;;;;;;;8.47;5.90;;;7.70;99.90;;;;;;5097960;28;20222;-84
2022/12/22 11:14:59;;;;;;;10.23;6.07;;;7.80;99.90;;;;;;5097684;28;20171;-85
2022/12/22 11:17:43;;;;;;;9.13;5.43;;;7.90;99.90;;;;;;5079451;28;20180;-84
2022/12/22 11:20:26;;;;;;;9.77;6.13;;;7.90;99.90;;;;;;5097959;28;20200;-85
2022/12/22 11:23:13;;;;;;;8.75;6.20;;;8.00;99.90;;;;;;5079665;28;20172;-85
2022/12/22 11:26:01;;;;;;;9.13;6.43;;;8.00;99.90;;;;;;5079492;28;20184;-84
2022/12/22 11:28:53;;;;;;;10.63;6.47;;;8.10;99.90;;;;;;5079294;28;20172;-86
2022/12/22 11:31:46;;;;;;;9.10;6.13;;;8.20;99.90;;;;;;5079237;28;20183;-84
2022/12/22 11:34:39;;;;;;;10.20;6.77;;;8.10;99.90;;;;;;5079218;28;20172;-85
2022/12/22 11:37:30;;;;;;;11.17;6.50;;;8.20;99.90;;;;;;5079037;28;20693;-84
2022/12/22 11:40:23;;;;;;;9.90;6.78;;;8.40;99.90;;;;;;5079193;28;20189;-84
2022/12/22 11:43:13;;;;;;;11.00;7.93;;;8.40;99.90;;;;;;5079198;28;20520;-84
2022/12/22 11:46:06;;;;;;;11.75;7.65;;;8.50;99.90;;;;;;5079230;28;20255;-85
2022/12/22 11:49:02;;;;;;;11.25;7.82;;;8.60;99.90;;;;;;5097041;28;20318;-85
2022/12/22 11:51:53;;;;;;;11.13;7.45;;;8.60;99.90;;;;;;5079303;28;21020;-84
2022/12/22 11:54:38;;;;;;;12.68;8.80;;;8.60;99.90;;;;;;5078847;28;20187;-85
2022/12/22 11:57:20;;;;;;;13.43;8.87;;;8.60;99.90;;;;;;5078907;28;20168;-84
2022/12/22 12:00:09;;;;;;;11.23;8.05;;;8.70;99.90;;;;;;5078834;28;20259;-84
2022/12/22 12:03:03;;;;;;;12.13;8.13;;;8.70;99.90;;;;;;5078544;28;20180;-84
2022/12/22 12:05:52;;;;;;;14.05;8.77;;;8.70;99.90;;;;;;5078724;28;20180;-84
2022/12/22 12:08:21;;;;;;;12.93;9.05;;;8.60;99.90;;;;;;5081990;28;20193;-85
2022/12/22 12:11:16;;;;;;;12.30;8.97;;;8.70;99.90;;;;;;5078709;28;20173;-84
2022/12/22 12:14:20;;;;;;;12.50;9.10;;;8.70;99.90;;;;;;5088614;28;20657;-85
2022/12/22 12:16:54;;;;;;;11.40;8.18;;;8.70;99.90;;;;;;5078035;28;20180;-84
2022/12/22 12:19:59;;;;;;;12.83;8.77;;;8.70;99.90;;;;;;5096610;28;20176;-84
2022/12/22 12:22:43;;;;;;;12.33;8.83;;;8.70;99.90;;;;;;5096672;28;20176;-84
2022/12/22 12:25:39;;;;;;;11.45;8.50;;;8.70;99.90;;;;;;5078254;28;20180;-84
2022/12/22 12:28:34;;;;;;;14.77;9.60;;;8.60;99.90;;;;;;5078361;28;20676;-83
2022/12/22 12:31:00;;;;;;;12.20;9.17;;;8.70;99.90;;;;;;5077645;28;20622;-84
2022/12/22 12:33:43;;;;;;;15.18;9.02;;;8.80;99.90;;;;;;5077779;28;20181;-83
2022/12/22 12:36:32;;;;;;;15.85;9.25;;;8.70;99.90;;;;;;5078136;28;20314;-84
2022/12/22 12:39:29;;;;;;;15.05;9.48;;;8.80;99.90;;;;;;5096450;28;20169;-85
2022/12/22 12:41:54;;;;;;;13.55;8.82;;;8.80;99.90;;;;;;5078153;28;20208;-85
2022/12/22 12:44:26;;;;;;;15.13;9.98;;;8.70;99.90;;;;;;5077981;28;20173;-85
2022/12/22 12:46:58;;;;;;;15.60;9.82;;;8.70;99.90;;;;;;5077977;28;20635;-85
2022/12/22 12:49:58;;;;;;;15.00;9.95;;;8.70;99.90;;;;;;5078257;28;20168;-85
2022/12/22 12:52:39;;;;;;;16.50;9.80;;;8.70;99.90;;;;;;5096414;28;20637;-84
2022/12/22 12:55:28;;;;;;;14.87;10.23;;;8.70;99.90;;;;;;5077796;28;20483;-85
2022/12/22 12:57:54;;;;;;;15.18;10.23;;;8.70;99.90;;;;;;5078049;28;20190;-84
2022/12/22 13:00:32;;;;;;;16.92;9.85;;;8.80;99.90;;;;;;5096136;28;20204;-85
2022/12/22 13:02:59;;;;;;;14.40;9.60;;;8.70;99.90;;;;;;5095679;28;20164;-84
2022/12/22 13:05:55;;;;;;;14.43;9.75;;;8.80;99.90;;;;;;5077978;28;20566;-84
2022/12/22 13:08:24;;;;;;;14.67;9.83;;;8.70;99.90;;;;;;5094329;28;20192;-85
2022/12/22 13:10:52;;;;;;;15.57;9.40;;;8.70;99.90;;;;;;5077708;28;20268;-85
2022/12/22 13:13:24;;;;;;;16.40;9.80;;;8.70;99.90;;;;;;5077562;28;20192;-85
2022/12/22 13:16:02;;;;;;;17.42;10.07;;;8.60;99.90;;;;;;5076683;28;20173;-85
2022/12/22 13:18:34;;;;;;;15.30;9.45;;;8.60;99.90;;;;;;5095131;28;20194;-85
2022/12/22 13:21:07;;;;;;;15.65;10.57;;;8.60;99.90;;;;;;5077262;28;20200;-84
2022/12/22 13:23:40;;;;;;;14.23;9.60;;;8.70;99.90;;;;;;5095395;28;20217;-85
2022/12/22 13:26:19;;;;;;;15.45;10.52;;;8.70;99.90;;;;;;5077344;28;20169;-83
2022/12/22 13:28:53;;;;;;;14.93;10.10;;;8.70;99.90;;;;;;5095504;28;20164;-84
2022/12/22 13:31:27;;;;;;;17.05;10.50;;;8.70;99.90;;;;;;5093937;28;20479;-85
2022/12/22 13:34:04;;;;;;;16.60;9.98;;;8.70;99.90;;;;;;5094166;28;20184;-85
2022/12/22 13:36:31;;;;;;;15.25;10.15;;;8.70;99.90;;;;;;5077085;28;20219;-85
2022/12/22 13:39:01;;;;;;;13.95;9.20;;;8.70;99.90;;;;;;5094000;28;20183;-84
2022/12/22 13:41:28;;;;;;;15.50;11.07;;;8.70;99.90;;;;;;5094995;28;20602;-84
2022/12/22 13:44:00;;;;;;;19.00;11.07;;;8.70;99.90;;;;;;5093960;28;20263;-83
2022/12/22 13:46:26;;;;;;;15.30;9.73;;;8.80;99.90;;;;;;5093564;28;20206;-84
2022/12/22 13:48:55;;;;;;;14.33;9.87;;;8.70;99.90;;;;;;5077014;28;20183;-84
2022/12/22 13:51:25;;;;;;;16.57;10.13;;;8.80;99.90;;;;;;5076950;28;20246;-83
2022/12/22 13:53:58;;;;;;;15.33;10.47;;;8.70;99.90;;;;;;5094973;28;20179;-84
2022/12/22 13:56:33;;;;;;;15.75;10.23;;;8.70;99.90;;;;;;5093831;28;20630;-84
2022/12/22 13:59:00;;;;;;;16.63;10.88;;;8.70;99.90;;;;;;5093653;28;20268;-84
2022/12/22 14:01:27;;;;;;;18.40;10.68;;;8.70;99.90;;;;;;5094550;28;20214;-84
2022/12/22 14:03:57;;;;;;;15.27;10.63;;;8.80;99.90;;;;;;5093355;28;20696;-84
2022/12/22 14:06:33;;;;;;;15.80;10.47;;;8.70;99.90;;;;;;5093501;28;20191;-85
2022/12/22 14:09:12;;;;;;;15.90;10.45;;;8.60;99.90;;;;;;5095020;28;20253;-85
2022/12/22 14:11:39;;;;;;;16.27;10.60;;;8.70;99.90;;;;;;5094664;28;20660;-85
2022/12/22 14:14:13;;;;;;;16.97;10.43;;;8.60;99.90;;;;;;5093308;28;20186;-85
2022/12/22 14:16:45;;;;;;;15.30;10.10;;;8.60;99.90;;;;;;5094269;28;20650;-85
2022/12/22 14:19:19;;;;;;;17.52;10.43;;;8.70;99.90;;;;;;5093373;28;20199;-85
2022/12/22 14:21:50;;;;;;;18.05;10.52;;;8.60;99.90;;;;;;5093325;28;20360;-85
2022/12/22 14:24:23;;;;;;;18.03;10.90;;;8.60;99.90;;;;;;5094349;28;20156;-85
2022/12/22 14:26:51;;;;;;;17.77;10.93;;;8.50;99.90;;;;;;5094622;28;20173;-85
2022/12/22 14:29:21;;;;;;;19.20;10.20;;;8.50;99.90;;;;;;5093234;28;20526;-85
2022/12/22 14:31:54;;;;;;;18.30;10.67;;;8.40;99.90;;;;;;5092809;28;20168;-85
2022/12/22 14:34:29;;;;;;;15.15;9.70;;;8.30;99.90;;;;;;5093022;28;20233;-85
2022/12/22 14:36:56;;;;;;;17.50;10.40;;;8.20;99.90;;;;;;5071537;28;20557;-85
2022/12/22 14:39:30;;;;;;;19.50;10.23;;;8.10;99.90;;;;;;5061346;28;20198;-85
2022/12/22 14:42:02;;;;;;;18.20;10.20;;;8.10;99.90;;;;;;5093076;28;20599;-85
2022/12/22 14:44:31;;;;;;;15.80;9.63;;;8.00;99.90;;;;;;5092951;28;20591;-85
2022/12/22 14:47:03;;;;;;;19.20;10.73;;;7.90;99.90;;;;;;5075851;28;20195;-85
2022/12/22 14:49:28;;;;;;;17.63;10.63;;;7.80;99.90;;;;;;5094374;28;20688;-85
2022/12/22 14:52:16;;;;;;;15.77;10.48;;;7.70;99.90;;;;;;5076031;28;20181;-85
2022/12/22 14:54:46;;;;;;;17.63;10.57;;;7.70;99.90;;;;;;5093087;28;20200;-85
2022/12/22 14:57:18;;;;;;;22.37;10.63;;;7.70;99.90;;;;;;5092984;28;20177;-83
2022/12/22 15:00:23;;;;;;;16.50;9.87;;;7.60;99.90;;;;;;5076041;28;20176;-84
2022/12/22 15:02:55;;;;;;;19.70;10.50;;;7.50;99.90;;;;;;5051764;28;20587;-85
2022/12/22 15:05:40;;;;;;;18.97;9.97;;;7.40;99.90;;;;;;5092913;28;20168;-84
2022/12/22 15:08:35;;;;;;;15.37;9.37;;;7.30;99.90;;;;;;5092867;28;20268;-85
2022/12/22 15:11:01;;;;;;;16.43;9.80;;;7.20;99.90;;;;;;5075959;28;20626;-85
2022/12/22 15:13:29;;;;;;;19.20;11.13;;;7.20;99.90;;;;;;5076012;28;20208;-84
2022/12/22 15:15:55;;;;;;;19.20;10.93;;;7.20;99.90;;;;;;5092748;28;20172;-85
2022/12/22 15:18:26;;;;;;;20.47;11.70;;;7.10;99.90;;;;;;5075390;28;20672;-85
2022/12/22 15:20:56;;;;;;;26.83;11.33;;;7.10;99.90;;;;;;5092461;28;20211;-84
2022/12/22 15:23:23;;;;;;;17.97;11.03;;;7.10;99.90;;;;;;5093527;28;20172;-84
2022/12/22 15:25:49;;;;;;;18.80;11.47;;;7.00;99.90;;;;;;5092654;28;20348;-85
2022/12/22 15:28:14;;;;;;;18.00;11.20;;;7.00;99.90;;;;;;5092596;28;20512;-84
2022/12/22 15:30:41;;;;;;;20.67;11.80;;;6.90;99.90;;;;;;5075693;28;20168;-85
2022/12/22 15:33:16;;;;;;;21.20;11.73;;;6.90;99.90;;;;;;5075372;28;20176;-85
2022/12/22 15:35:43;;;;;;;24.80;11.60;;;6.80;99.90;;;;;;5093378;28;20220;-84
2022/12/22 15:38:15;;;;;;;19.60;10.70;;;6.80;99.90;;;;;;5092530;28;20180;-85
2022/12/22 15:40:42;;;;;;;17.97;10.27;;;6.70;99.90;;;;;;5075660;28;20206;-84
2022/12/22 15:43:09;;;;;;;22.63;11.20;;;6.70;99.90;;;;;;5094659;28;20169;-85
2022/12/22 15:45:35;;;;;;;18.83;10.87;;;6.60;99.90;;;;;;5096126;28;20619;-86
2022/12/22 15:48:01;;;;;;;16.90;10.37;;;6.60;99.90;;;;;;5097181;28;20214;-85
2022/12/22 15:50:40;;;;;;;24.93;11.40;;;6.50;99.90;;;;;;5079182;28;20283;-85
2022/12/22 15:53:10;;;;;;;20.53;10.97;;;6.50;99.90;;;;;;5095922;28;20264;-85
2022/12/22 15:55:48;;;;;;;17.97;10.83;;;6.40;99.90;;;;;;5096098;28;20529;-85
2022/12/22 15:58:17;;;;;;;17.93;9.83;;;6.40;99.90;;;;;;5079154;28;20614;-85
2022/12/22 16:00:44;;;;;;;17.13;10.90;;;6.30;99.90;;;;;;5079017;28;20635;-84
2022/12/22 16:03:11;;;;;;;18.03;10.33;;;6.30;99.90;;;;;;5078721;28;20172;-85
2022/12/22 16:05:38;;;;;;;19.07;11.30;;;6.30;99.90;;;;;;5097036;28;20172;-85
2022/12/22 16:08:11;;;;;;;16.13;10.07;;;6.30;99.90;;;;;;5095724;28;20184;-85
2022/12/22 16:10:37;;;;;;;18.83;11.30;;;6.30;99.90;;;;;;5095673;28;20173;-85
2022/12/22 16:13:03;;;;;;;19.43;10.60;;;6.20;99.90;;;;;;5078591;28;20570;-85
2022/12/22 16:15:32;;;;;;;18.37;11.00;;;6.20;99.90;;;;;;5078990;28;20203;-85
2022/12/22 16:17:58;;;;;;;20.83;11.30;;;6.20;99.90;;;;;;5094544;28;20184;-85
2022/12/22 16:20:29;;;;;;;19.87;11.50;;;6.20;99.90;;;;;;5097020;28;20197;-85
2022/12/22 16:22:56;;;;;;;24.00;12.30;;;6.20;99.90;;;;;;5078939;28;20249;-85
2022/12/22 16:25:25;;;;;;;22.13;11.60;;;6.20;99.90;;;;;;5096735;28;20637;-85
2022/12/22 16:27:51;;;;;;;22.83;11.93;;;6.20;99.90;;;;;;5095659;28;20180;-85
2022/12/22 16:30:23;;;;;;;20.00;11.77;;;6.10;99.90;;;;;;5095374;28;20524;-85
2022/12/22 16:32:49;;;;;;;23.70;12.03;;;6.10;99.90;;;;;;5095387;28;20210;-85
2022/12/22 16:35:18;;;;;;;25.50;12.07;;;6.00;99.90;;;;;;5095271;28;20229;-86
2022/12/22 16:37:45;;;;;;;19.87;11.70;;;6.00;99.90;;;;;;5095365;28;20260;-86
2022/12/22 16:40:11;;;;;;;21.10;11.67;;;5.90;99.90;;;;;;5095355;28;20208;-85
2022/12/22 16:42:39;;;;;;;21.73;12.07;;;5.90;99.90;;;;;;5096519;28;20176;-85
2022/12/22 16:45:14;;;;;;;20.73;12.03;;;5.90;99.90;;;;;;5096508;28;20674;-85
2022/12/22 16:47:40;;;;;;;24.60;10.87;;;5.80;99.90;;;;;;5095233;28;20504;-85
2022/12/22 16:50:17;;;;;;;19.67;10.83;;;5.90;99.90;;;;;;5096511;28;20230;-86
2022/12/22 16:52:42;;;;;;;16.87;9.93;;;5.80;99.90;;;;;;5095244;28;20191;-87